メインページ
METAR-TAF:

METAR-TAF

空港 :

テルアビブ / ベン・グリオン, イスラエル

ベン・グリオン国際空港

緯度: 32-00N, 経度: 034-54E, 海抜: 40m

現時点の気象観測

当レポートは24分前の09:20(UTC)に作成
西/北西の風 8kt
気温 20°C
湿度 64%
気圧 1017 hPa
視程10km以上
高度3000ftの雲はほとんどない

METAR: LLBG 250920Z 30008KT 9999 FEW030 20/13 Q1017 NOSIG

時間: 12:44 (09:44 UTC)

予報

当レポートは4時間41分前の05:03(UTC)に作成
予報は25日の 06時(UTC)から 26日の 06時(UTC)まで有効
の風 4kt
視程10km以上
高度2000ftの雲は散在している
25日の 07時(UTC)から 25日の 09時(UTC)まで徐々に
西/北西の風 10kt
高度2500ftの雲はほとんどない
25日の 14時(UTC)から 25日の 17時(UTC)まで徐々に
変向風 3kt
25日の 20時(UTC)から 25日の 22時(UTC)まで徐々に
東/南東の風 4kt
視程: 8000m
高度1800ftの雲は散在している
確率 30%
26日の 03時(UTC)から 26日の 06時(UTC)まで
視程: 5000m
高度1500ftの千切れ雲あり

TAF: LLBG 250503Z 2506/2606 10004KT 9999 SCT020 BECMG 2507/2509 30010KT FEW025 BECMG 2514/2517 VRB03KT BECMG 2520/2522 11004KT 8000 SCT018 PROB30 2603/2606 5000 BR BKN015 TX22/2511Z TN12/2603Z

4,000以上の空港の気象観測と天気予報(METAR報とTAF報)

利用可能な観測所は地図上に黄色い丸と赤い丸で示す。

丸の上にカーソルを重ねると観測所名を参照できる。

次にクリックすると気象観測と天気予報を参照できる。

マップの切り替え:黒色「×」印の緑ボタンをクリックして拡大、「-」印の緑ボタンをクリックして縮小、緑色の三角印をクリックして隣りの地図に切り替え


METAR-TAF: